Terminal Aerodrome Forecast
Issued by NWS

Home | Current Version | Previous Version | Graphics & Text | Print | Product List | Glossary On
Versions: 1 2 3 4 5 6 7 8 9 10 11 12 13 14 15 16 17 18 19 20 21
297
FTUS41 KCLE 161131
TAFFDY
TAF
KFDY 161131Z 1612/1712 09004KT 5SM BR BKN070
     FM161600 11005KT 3SM BR VCSH BKN015
     FM162300 13008KT 2SM -RA BR OVC008=

USA.gov is the U.S. government's official web portal to all federal, state and local government web resources and services.